createdAt,value
2023-04-14T00:00:00.390Z,100.00
2023-04-14T00:02:27.520Z,100.00
2023-04-14T00:04:55.127Z,100.00
2023-04-14T00:07:22.370Z,100.00
2023-04-14T00:09:49.629Z,100.00
2023-04-14T00:12:16.674Z,100.00
2023-04-14T00:14:43.727Z,100.00
2023-04-14T00:17:11.456Z,100.00
2023-04-14T00:19:38.668Z,100.00
2023-04-14T00:22:05.757Z,100.00
2023-04-14T00:24:32.819Z,100.00
2023-04-14T00:26:59.896Z,100.00
2023-04-14T00:29:27.014Z,100.00
2023-04-14T00:31:54.236Z,100.00
2023-04-14T00:34:21.319Z,100.00
2023-04-14T00:36:48.340Z,100.00
2023-04-14T00:39:15.567Z,100.00
2023-04-14T00:41:43.361Z,100.00
2023-04-14T00:44:10.546Z,100.00
2023-04-14T00:46:37.749Z,100.00
2023-04-14T00:49:05.099Z,100.00
2023-04-14T00:51:33.803Z,100.00
2023-04-14T00:54:02.903Z,100.00
2023-04-14T00:56:31.385Z,100.00
2023-04-14T00:59:01.477Z,100.00
2023-04-14T01:01:29.505Z,100.00
2023-04-14T01:03:57.786Z,100.00
2023-04-14T01:06:24.910Z,100.00
2023-04-14T01:08:51.954Z,100.00
2023-04-14T01:11:18.959Z,100.00
2023-04-14T01:13:53.896Z,100.00
2023-04-14T01:16:28.713Z,100.00
2023-04-14T01:19:01.117Z,100.00
2023-04-14T01:21:35.519Z,100.00
2023-04-14T01:24:26.189Z,100.00
2023-04-14T01:27:02.960Z,100.00
2023-04-14T01:29:49.232Z,100.00
2023-04-14T01:32:20.103Z,100.00
2023-04-14T01:34:50.199Z,100.00
2023-04-14T01:37:32.120Z,100.00
2023-04-14T01:40:02.659Z,100.00
2023-04-14T01:42:35.734Z,100.00
2023-04-14T01:45:16.886Z,100.00
2023-04-14T01:47:45.344Z,100.00
2023-04-14T01:50:13.044Z,100.00
2023-04-14T01:52:42.821Z,100.00
2023-04-14T01:55:10.730Z,100.00
2023-04-14T01:57:41.816Z,100.00
2023-04-14T02:00:10.549Z,100.00
2023-04-14T02:02:47.736Z,100.00
2023-04-14T02:05:17.188Z,100.00
2023-04-14T02:07:45.848Z,100.00
2023-04-14T02:10:15.950Z,100.00
2023-04-14T02:12:43.533Z,100.00
2023-04-14T02:15:13.680Z,100.00
2023-04-14T02:17:41.941Z,100.00
2023-04-14T02:20:09.733Z,100.00
2023-04-14T02:22:36.948Z,100.00
2023-04-14T02:25:04.350Z,100.00
2023-04-14T02:27:35.238Z,100.00
2023-04-14T02:30:08.232Z,100.00
2023-04-14T02:32:39.478Z,100.00
2023-04-14T02:35:10.567Z,100.00
2023-04-14T02:37:40.151Z,100.00
2023-04-14T02:40:27.779Z,100.00
2023-04-14T02:43:07.863Z,100.00
2023-04-14T02:45:36.820Z,100.00
2023-04-14T02:48:07.705Z,100.00
2023-04-14T02:50:35.477Z,100.00
2023-04-14T02:53:17.399Z,100.00
2023-04-14T02:55:46.707Z,100.00
2023-04-14T02:58:15.819Z,100.00
2023-04-14T03:00:43.252Z,100.00
2023-04-14T03:03:12.796Z,100.00
2023-04-14T03:05:43.137Z,100.00
2023-04-14T03:08:11.352Z,100.00
2023-04-14T03:10:41.303Z,100.00
2023-04-14T03:13:09.742Z,100.00
2023-04-14T03:15:37.865Z,100.00
2023-04-14T03:18:06.383Z,100.00
2023-04-14T03:20:34.933Z,100.00
2023-04-14T03:23:06.428Z,100.00
2023-04-14T03:25:42.303Z,100.00
2023-04-14T03:28:19.424Z,100.00
2023-04-14T03:30:50.900Z,100.00
2023-04-14T03:33:20.683Z,100.00
2023-04-14T03:35:50.050Z,100.00
2023-04-14T03:38:17.805Z,100.00
2023-04-14T03:40:47.840Z,100.00
2023-04-14T03:43:22.457Z,100.00
2023-04-14T03:45:56.918Z,100.00
2023-04-14T03:48:26.359Z,100.00
2023-04-14T03:50:54.956Z,100.00
2023-04-14T03:53:22.064Z,100.00
2023-04-14T03:55:51.475Z,100.00
2023-04-14T03:58:20.061Z,100.00
2023-04-14T04:00:49.247Z,100.00
2023-04-14T04:03:18.010Z,100.00
2023-04-14T04:05:45.447Z,100.00
2023-04-14T04:08:12.718Z,100.00
2023-04-14T04:10:40.153Z,100.00
2023-04-14T04:13:09.097Z,100.00
2023-04-14T04:15:37.812Z,100.00
2023-04-14T04:18:06.819Z,100.00
2023-04-14T04:20:36.207Z,100.00
2023-04-14T04:23:04.126Z,100.00
2023-04-14T04:25:33.029Z,100.00
2023-04-14T04:28:06.856Z,100.00
2023-04-14T04:30:35.305Z,100.00
2023-04-14T04:33:03.721Z,100.00
2023-04-14T04:35:31.722Z,100.00
2023-04-14T04:38:00.898Z,100.00
2023-04-14T04:40:35.200Z,100.00
2023-04-14T04:43:02.344Z,100.00
2023-04-14T04:45:42.276Z,100.00
2023-04-14T04:48:09.549Z,100.00
2023-04-14T04:50:36.769Z,100.00
2023-04-14T04:53:03.995Z,100.00
2023-04-14T04:55:31.028Z,100.00
2023-04-14T04:57:58.122Z,100.00
2023-04-14T05:00:26.607Z,100.00
2023-04-14T05:02:53.761Z,100.00
2023-04-14T05:05:21.056Z,100.00
2023-04-14T05:07:48.256Z,100.00
2023-04-14T05:10:15.320Z,100.00
2023-04-14T05:12:42.331Z,100.00
2023-04-14T05:15:09.784Z,100.00
2023-04-14T05:17:37.252Z,100.00
2023-04-14T05:20:05.709Z,100.00
2023-04-14T05:22:32.946Z,100.00
2023-04-14T05:25:00.046Z,100.00
2023-04-14T05:27:27.148Z,100.00
2023-04-14T05:29:54.205Z,100.00
2023-04-14T05:32:22.321Z,100.00
2023-04-14T05:34:49.632Z,100.00
2023-04-14T05:37:17.876Z,100.00
2023-04-14T05:39:45.131Z,100.00
2023-04-14T05:42:12.210Z,100.00
2023-04-14T05:44:39.347Z,100.00
2023-04-14T05:47:06.738Z,100.00
2023-04-14T05:49:33.896Z,100.00
2023-04-14T05:52:01.200Z,100.00
2023-04-14T05:54:28.265Z,100.00
2023-04-14T05:56:56.439Z,100.00
2023-04-14T05:59:23.503Z,100.00
2023-04-14T06:01:50.809Z,100.00
2023-04-14T06:04:18.355Z,100.00
2023-04-14T06:06:45.695Z,100.00
2023-04-14T06:09:12.737Z,100.00
2023-04-14T06:11:40.409Z,100.00
2023-04-14T06:14:07.828Z,100.00
2023-04-14T06:16:34.950Z,100.00
2023-04-14T06:19:02.348Z,100.00
2023-04-14T06:21:29.596Z,100.00
2023-04-14T06:23:56.706Z,100.00
2023-04-14T06:26:23.912Z,100.00
2023-04-14T06:28:50.993Z,100.00
2023-04-14T06:31:18.046Z,100.00
2023-04-14T06:33:45.094Z,100.00
2023-04-14T06:36:13.209Z,100.00
2023-04-14T06:38:40.347Z,100.00
2023-04-14T06:41:07.385Z,100.00
2023-04-14T06:43:34.414Z,100.00
2023-04-14T06:46:01.852Z,100.00
2023-04-14T06:48:28.968Z,100.00
2023-04-14T06:50:56.505Z,100.00
2023-04-14T06:53:23.825Z,100.00
2023-04-14T06:55:59.526Z,99.41
2023-04-14T06:58:27.714Z,98.16
2023-04-14T07:01:04.026Z,94.91
2023-04-14T07:03:31.372Z,93.00
2023-04-14T07:06:05.302Z,97.23
2023-04-14T07:08:33.019Z,97.80
2023-04-14T07:11:02.359Z,96.02
2023-04-14T07:13:29.651Z,95.65
2023-04-14T07:15:56.759Z,92.86
2023-04-14T07:18:23.928Z,95.01
2023-04-14T07:20:51.766Z,100.00
2023-04-14T07:23:18.917Z,100.00
2023-04-14T07:25:52.718Z,100.00
2023-04-14T07:28:20.641Z,100.00
2023-04-14T07:30:48.299Z,100.00
2023-04-14T07:33:19.085Z,100.00
2023-04-14T07:36:00.696Z,100.00
2023-04-14T07:38:29.738Z,100.00
2023-04-14T07:40:57.577Z,100.00
2023-04-14T07:43:24.768Z,98.90
2023-04-14T07:45:52.548Z,96.38
2023-04-14T07:48:21.427Z,92.50
2023-04-14T07:50:50.020Z,78.64
2023-04-14T07:53:17.201Z,75.77
2023-04-14T07:55:44.318Z,71.44
2023-04-14T07:58:15.273Z,70.22
2023-04-14T08:00:43.038Z,69.89
2023-04-14T08:03:10.323Z,69.84
2023-04-14T08:05:37.889Z,66.26
2023-04-14T08:08:05.220Z,64.47
2023-04-14T08:10:32.376Z,61.56
2023-04-14T08:13:01.021Z,60.64
2023-04-14T08:15:29.487Z,57.95
2023-04-14T08:17:57.076Z,58.97
2023-04-14T08:20:24.218Z,61.72
2023-04-14T08:22:51.438Z,57.32
2023-04-14T08:25:18.512Z,59.31
2023-04-14T08:27:45.694Z,62.89
2023-04-14T08:30:12.928Z,62.66
2023-04-14T08:32:40.052Z,59.03
2023-04-14T08:35:38.739Z,57.85
2023-04-14T08:37:54.292Z,60.95
2023-04-14T08:40:25.294Z,61.57
2023-04-14T08:42:52.334Z,62.50
2023-04-14T08:45:19.972Z,60.95
2023-04-14T08:47:48.016Z,62.11
2023-04-14T08:50:18.239Z,62.74
2023-04-14T08:52:46.106Z,63.43
2023-04-14T08:55:13.678Z,64.52
2023-04-14T08:57:43.568Z,60.92
2023-04-14T09:00:11.246Z,61.75
2023-04-14T09:02:40.313Z,61.90
2023-04-14T09:05:08.086Z,61.99
2023-04-14T09:07:35.977Z,57.73
2023-04-14T09:10:03.375Z,54.12
2023-04-14T09:12:30.527Z,57.37
2023-04-14T09:14:58.803Z,56.20
2023-04-14T09:17:27.567Z,57.12
2023-04-14T09:20:38.635Z,60.76
2023-04-14T09:22:42.011Z,58.18
2023-04-14T09:25:09.558Z,59.82
2023-04-14T09:27:36.992Z,59.90
2023-04-14T09:30:04.325Z,62.16
2023-04-14T09:32:31.494Z,60.32
2023-04-14T09:34:58.810Z,60.77
2023-04-14T09:37:26.149Z,60.94
2023-04-14T09:39:55.322Z,61.71
2023-04-14T09:42:37.381Z,62.19
2023-04-14T09:45:05.622Z,63.52
2023-04-14T09:47:32.896Z,63.04
2023-04-14T09:50:01.050Z,62.61
2023-04-14T09:52:38.257Z,65.00
2023-04-14T09:55:08.191Z,65.33
2023-04-14T09:57:37.420Z,65.69
2023-04-14T10:00:24.525Z,66.28
2023-04-14T10:02:56.368Z,64.95
2023-04-14T10:05:27.387Z,62.43
2023-04-14T10:07:54.960Z,62.91
2023-04-14T10:10:22.718Z,64.57
2023-04-14T10:12:52.691Z,61.94
2023-04-14T10:15:19.810Z,63.09
2023-04-14T10:17:47.259Z,61.07
2023-04-14T10:20:15.495Z,59.37
2023-04-14T10:22:42.973Z,59.46
2023-04-14T10:25:10.701Z,59.22
2023-04-14T10:27:38.249Z,59.62
2023-04-14T10:30:06.438Z,60.42
2023-04-14T10:32:34.929Z,58.96
2023-04-14T10:35:06.429Z,58.58
2023-04-14T10:37:34.934Z,58.93
2023-04-14T10:40:23.186Z,58.17
2023-04-14T10:42:57.261Z,57.38
2023-04-14T10:45:24.486Z,55.71
2023-04-14T10:47:51.750Z,54.85
2023-04-14T10:50:22.339Z,53.54
2023-04-14T10:52:50.189Z,52.50
2023-04-14T10:55:17.835Z,53.63
2023-04-14T10:57:46.154Z,52.74
2023-04-14T11:00:13.429Z,52.75
2023-04-14T11:02:53.848Z,48.59
2023-04-14T11:05:21.564Z,49.59
2023-04-14T11:07:50.263Z,50.56
2023-04-14T11:10:17.566Z,51.28
2023-04-14T11:12:46.012Z,50.07
2023-04-14T11:15:13.423Z,48.75
2023-04-14T11:17:41.621Z,50.11
2023-04-14T11:20:15.713Z,49.72
2023-04-14T11:22:46.309Z,48.56
2023-04-14T11:25:14.485Z,46.84
2023-04-14T11:27:42.897Z,49.26
2023-04-14T11:30:14.327Z,49.16
2023-04-14T11:32:51.748Z,50.84
2023-04-14T11:35:19.684Z,50.07
2023-04-14T11:37:46.921Z,47.56
2023-04-14T11:40:16.460Z,46.04
2023-04-14T11:42:44.573Z,46.41
2023-04-14T11:45:13.582Z,46.97
2023-04-14T11:47:41.212Z,45.18
2023-04-14T11:50:08.635Z,44.14
2023-04-14T11:52:35.912Z,44.88
2023-04-14T11:55:03.124Z,45.45
2023-04-14T11:57:30.231Z,46.84
2023-04-14T11:59:57.397Z,45.90
2023-04-14T12:02:24.610Z,45.93
2023-04-14T12:04:52.077Z,46.39
2023-04-14T12:07:20.278Z,43.98
2023-04-14T12:09:49.047Z,45.55
2023-04-14T12:12:17.320Z,45.02
2023-04-14T12:14:48.445Z,44.32
2023-04-14T12:17:16.863Z,44.46
2023-04-14T12:19:45.081Z,41.52
2023-04-14T12:22:12.696Z,41.78
2023-04-14T12:24:40.977Z,40.11
2023-04-14T12:27:09.808Z,37.87
2023-04-14T12:29:37.060Z,39.21
2023-04-14T12:32:14.205Z,40.88
2023-04-14T12:34:41.580Z,44.42
2023-04-14T12:37:09.841Z,43.00
2023-04-14T12:39:50.640Z,42.07
2023-04-14T12:42:18.260Z,42.90
2023-04-14T12:45:01.331Z,46.06
2023-04-14T12:47:32.658Z,46.53
2023-04-14T12:50:19.996Z,47.34
2023-04-14T12:52:47.639Z,45.22
2023-04-14T12:55:24.958Z,43.81
2023-04-14T12:57:53.253Z,42.54
2023-04-14T13:00:24.624Z,41.66
2023-04-14T13:02:51.940Z,42.22
2023-04-14T13:05:19.405Z,45.90
2023-04-14T13:07:46.569Z,43.12
2023-04-14T13:10:14.056Z,41.04
2023-04-14T13:12:41.983Z,40.75
2023-04-14T13:15:09.311Z,41.07
2023-04-14T13:17:56.456Z,41.18
2023-04-14T13:20:23.579Z,43.07
2023-04-14T13:22:51.037Z,44.94
2023-04-14T13:25:18.111Z,40.26
2023-04-14T13:27:45.321Z,41.43
2023-04-14T13:30:12.555Z,42.39
2023-04-14T13:32:39.646Z,42.93
2023-04-14T13:35:06.972Z,43.93
2023-04-14T13:37:34.084Z,42.57
2023-04-14T13:40:01.590Z,45.04
2023-04-14T13:42:28.722Z,45.80
2023-04-14T13:44:55.794Z,41.97
2023-04-14T13:47:23.003Z,40.51
2023-04-14T13:49:50.122Z,41.65
2023-04-14T13:52:17.149Z,42.38
2023-04-14T13:54:44.177Z,41.24
2023-04-14T13:57:11.273Z,40.34
2023-04-14T13:59:38.369Z,40.78
2023-04-14T14:02:06.535Z,40.59
2023-04-14T14:04:36.364Z,39.22
2023-04-14T14:07:03.560Z,40.30
2023-04-14T14:09:30.708Z,41.49
2023-04-14T14:11:57.916Z,40.82
2023-04-14T14:14:25.004Z,41.04
2023-04-14T14:16:52.132Z,40.14
2023-04-14T14:19:19.337Z,40.94
2023-04-14T14:21:46.431Z,40.39
2023-04-14T14:24:14.007Z,39.66
2023-04-14T14:26:41.104Z,39.34
2023-04-14T14:29:08.153Z,39.11
2023-04-14T14:31:35.498Z,38.32
2023-04-14T14:34:02.758Z,38.74
2023-04-14T14:36:30.419Z,39.23
2023-04-14T14:38:57.599Z,37.06
2023-04-14T14:41:24.651Z,38.55
2023-04-14T14:43:51.808Z,39.34
2023-04-14T14:46:18.993Z,38.68
2023-04-14T14:48:46.837Z,38.06
2023-04-14T14:51:13.860Z,37.35
2023-04-14T14:53:40.856Z,37.10
2023-04-14T14:56:07.953Z,36.62
2023-04-14T14:58:35.039Z,37.98
2023-04-14T15:01:02.079Z,37.69
2023-04-14T15:03:29.382Z,37.88
2023-04-14T15:05:56.719Z,37.46
2023-04-14T15:08:24.023Z,38.31
2023-04-14T15:10:51.779Z,39.38
2023-04-14T15:13:18.922Z,38.71
2023-04-14T15:15:46.333Z,39.01
2023-04-14T15:18:13.558Z,39.00
2023-04-14T15:20:41.299Z,38.32
2023-04-14T15:23:08.646Z,38.20
2023-04-14T15:25:35.809Z,37.04
2023-04-14T15:28:03.009Z,37.41
2023-04-14T15:30:30.032Z,36.08
2023-04-14T15:32:58.181Z,38.52
2023-04-14T15:35:26.198Z,35.83
2023-04-14T15:37:53.313Z,36.12
2023-04-14T15:40:20.511Z,34.48
2023-04-14T15:42:47.713Z,34.57
2023-04-14T15:45:14.841Z,34.93
2023-04-14T15:47:42.047Z,34.44
2023-04-14T15:50:10.214Z,34.71
2023-04-14T15:52:38.786Z,34.91
2023-04-14T15:55:06.314Z,35.40
2023-04-14T15:57:33.435Z,35.69
2023-04-14T16:00:02.069Z,35.81
2023-04-14T16:02:29.375Z,35.97
2023-04-14T16:04:58.069Z,35.90
2023-04-14T16:07:27.192Z,34.88
2023-04-14T16:09:54.307Z,35.00
2023-04-14T16:12:21.360Z,35.08
2023-04-14T16:14:48.570Z,34.59
2023-04-14T16:17:15.644Z,34.34
2023-04-14T16:19:42.740Z,35.57
2023-04-14T16:22:09.882Z,35.74
2023-04-14T16:24:37.470Z,36.12
2023-04-14T16:27:04.560Z,36.45
2023-04-14T16:29:31.864Z,35.52
2023-04-14T16:31:58.906Z,34.88
2023-04-14T16:34:26.227Z,34.65
2023-04-14T16:36:53.256Z,34.56
2023-04-14T16:39:22.139Z,33.78
2023-04-14T16:41:49.169Z,34.53
2023-04-14T16:44:16.425Z,34.56
2023-04-14T16:46:43.658Z,35.90
2023-04-14T16:49:10.982Z,39.26
2023-04-14T16:51:38.505Z,41.61
2023-04-14T16:54:06.141Z,42.18
2023-04-14T16:56:36.218Z,43.28
2023-04-14T16:59:04.507Z,43.79
2023-04-14T17:01:31.784Z,44.47
2023-04-14T17:03:59.264Z,43.71
2023-04-14T17:06:27.111Z,44.00
2023-04-14T17:08:54.136Z,44.92
2023-04-14T17:11:21.606Z,45.51
2023-04-14T17:13:48.708Z,45.61
2023-04-14T17:16:15.846Z,45.91
2023-04-14T17:18:44.008Z,46.71
2023-04-14T17:21:11.170Z,46.62
2023-04-14T17:23:38.349Z,46.53
2023-04-14T17:26:05.855Z,46.87
2023-04-14T17:28:34.398Z,46.04
2023-04-14T17:31:02.073Z,46.09
2023-04-14T17:33:29.275Z,46.24
2023-04-14T17:35:57.078Z,46.74
2023-04-14T17:38:24.282Z,47.33
2023-04-14T17:40:53.343Z,47.07
2023-04-14T17:43:20.983Z,46.99
2023-04-14T17:45:50.413Z,47.41
2023-04-14T17:48:18.046Z,49.02
2023-04-14T17:50:46.354Z,47.49
2023-04-14T17:53:15.509Z,48.52
2023-04-14T17:55:43.415Z,49.14
2023-04-14T17:58:10.680Z,48.91
2023-04-14T18:00:37.998Z,49.47
2023-04-14T18:03:05.209Z,49.42
2023-04-14T18:05:32.376Z,48.86
2023-04-14T18:07:59.495Z,50.01
2023-04-14T18:10:26.999Z,49.83
2023-04-14T18:12:54.073Z,48.45
2023-04-14T18:15:21.616Z,50.00
2023-04-14T18:17:48.934Z,49.91
2023-04-14T18:20:22.128Z,47.97
2023-04-14T18:22:49.726Z,47.36
2023-04-14T18:25:19.269Z,47.43
2023-04-14T18:30:19.436Z,46.80
2023-04-14T18:32:56.845Z,48.56
2023-04-14T18:35:25.428Z,49.24
2023-04-14T18:37:53.250Z,49.62
2023-04-14T18:40:22.527Z,50.37
2023-04-14T18:42:54.816Z,50.04
2023-04-14T18:45:22.087Z,48.92
2023-04-14T18:47:49.905Z,48.03
2023-04-14T18:50:17.094Z,47.01
2023-04-14T18:52:44.211Z,49.47
2023-04-14T18:55:11.560Z,51.10
2023-04-14T18:57:39.164Z,51.39
2023-04-14T19:00:06.582Z,51.53
2023-04-14T19:02:34.498Z,51.99
2023-04-14T19:05:02.411Z,53.03
2023-04-14T19:07:29.722Z,57.78
2023-04-14T19:09:56.861Z,60.40
2023-04-14T19:12:28.603Z,62.47
2023-04-14T19:14:56.105Z,67.69
2023-04-14T19:17:23.249Z,71.07
2023-04-14T19:19:50.503Z,73.32
2023-04-14T19:22:17.908Z,75.25
2023-04-14T19:24:45.030Z,75.62
2023-04-14T19:27:12.122Z,77.53
2023-04-14T19:29:39.167Z,77.65
2023-04-14T19:32:06.254Z,79.09
2023-04-14T19:34:33.817Z,79.80
2023-04-14T19:37:00.913Z,80.83
2023-04-14T19:39:28.540Z,80.21
2023-04-14T19:41:56.415Z,80.06
2023-04-14T19:44:23.891Z,80.78
2023-04-14T19:46:51.062Z,80.57
2023-04-14T19:49:18.179Z,79.53
2023-04-14T19:51:45.515Z,79.45
2023-04-14T19:54:12.543Z,79.82
2023-04-14T19:56:39.695Z,80.70
2023-04-14T19:59:08.096Z,82.06
2023-04-14T20:01:35.351Z,82.20
2023-04-14T20:04:06.912Z,82.78
2023-04-14T20:06:39.492Z,82.76
2023-04-14T20:09:06.639Z,80.79
2023-04-14T20:11:33.729Z,81.02
2023-04-14T20:14:00.861Z,80.75
2023-04-14T20:16:27.950Z,80.35
2023-04-14T20:18:55.472Z,81.07
2023-04-14T20:21:22.630Z,81.73
2023-04-14T20:23:49.902Z,82.42
2023-04-14T20:26:17.308Z,82.51
2023-04-14T20:28:45.580Z,82.13
2023-04-14T20:31:13.516Z,81.39
2023-04-14T20:33:40.827Z,80.67
2023-04-14T20:36:08.086Z,80.95
2023-04-14T20:38:35.482Z,80.18
2023-04-14T20:41:02.610Z,80.04
2023-04-14T20:43:34.220Z,79.93
2023-04-14T20:46:01.504Z,78.09
2023-04-14T20:48:30.369Z,78.94
2023-04-14T20:50:57.848Z,78.66
2023-04-14T20:53:27.076Z,79.06
2023-04-14T20:55:54.973Z,78.93
2023-04-14T20:58:22.041Z,79.34
2023-04-14T21:00:49.325Z,78.63
2023-04-14T21:03:17.159Z,78.85
2023-04-14T21:05:44.345Z,78.46
2023-04-14T21:08:12.579Z,78.42
2023-04-14T21:11:14.824Z,78.49
2023-04-14T21:15:25.358Z,77.64
2023-04-14T21:16:15.684Z,76.99
2023-04-14T21:18:42.778Z,77.57
2023-04-14T21:21:11.397Z,77.76
2023-04-14T21:23:38.471Z,77.56
2023-04-14T21:26:05.498Z,77.20
2023-04-14T21:28:32.663Z,76.94
2023-04-14T21:31:01.539Z,76.50
2023-04-14T21:33:28.878Z,76.93
2023-04-14T21:35:56.359Z,77.55
2023-04-14T21:38:23.965Z,76.92
2023-04-14T21:40:51.568Z,77.41
2023-04-14T21:43:18.648Z,77.55
2023-04-14T21:45:45.845Z,76.85
2023-04-14T21:48:13.004Z,75.35
2023-04-14T21:50:40.107Z,75.21
2023-04-14T21:53:07.200Z,74.84
2023-04-14T21:55:35.154Z,75.11
2023-04-14T21:58:03.707Z,75.81
2023-04-14T22:00:31.037Z,74.85
2023-04-14T22:02:58.204Z,74.83
2023-04-14T22:05:25.399Z,74.65
2023-04-14T22:07:53.765Z,74.66
2023-04-14T22:10:21.789Z,75.60
2023-04-14T22:12:49.087Z,75.92
2023-04-14T22:15:16.838Z,76.81
2023-04-14T22:17:44.815Z,77.59
2023-04-14T22:20:12.124Z,76.19
2023-04-14T22:22:39.202Z,77.15
2023-04-14T22:25:06.707Z,75.75
2023-04-14T22:27:34.451Z,76.42
2023-04-14T22:30:02.590Z,75.70
2023-04-14T22:32:29.963Z,75.72
2023-04-14T22:34:57.148Z,76.23
2023-04-14T22:37:24.203Z,75.80
2023-04-14T22:39:51.497Z,77.04
2023-04-14T22:42:18.634Z,75.62
2023-04-14T22:44:47.992Z,75.00
2023-04-14T22:47:15.557Z,75.41
2023-04-14T22:49:42.664Z,74.58
2023-04-14T22:52:09.712Z,74.15
2023-04-14T22:54:36.820Z,73.93
2023-04-14T22:57:04.127Z,75.29
2023-04-14T22:59:32.062Z,74.91
2023-04-14T23:01:59.319Z,76.39
2023-04-14T23:04:26.778Z,76.93
2023-04-14T23:06:53.928Z,75.99
2023-04-14T23:09:21.211Z,75.97
2023-04-14T23:11:48.496Z,75.48
2023-04-14T23:14:15.706Z,75.34
2023-04-14T23:16:43.805Z,75.82
2023-04-14T23:19:10.924Z,75.49
2023-04-14T23:21:38.876Z,75.35
2023-04-14T23:24:06.601Z,73.86
2023-04-14T23:26:33.625Z,74.45
2023-04-14T23:29:01.524Z,74.89
2023-04-14T23:31:28.909Z,73.89
2023-04-14T23:33:56.249Z,73.45
2023-04-14T23:36:23.345Z,74.21
2023-04-14T23:38:50.408Z,75.98
2023-04-14T23:41:18.084Z,76.78
2023-04-14T23:43:45.857Z,78.93
2023-04-14T23:46:12.956Z,77.83
2023-04-14T23:48:39.992Z,78.89
2023-04-14T23:51:14.790Z,78.50
2023-04-14T23:53:48.069Z,77.81
2023-04-14T23:56:15.142Z,78.35
2023-04-14T23:58:43.068Z,78.45
